createdAt,value
2023-05-07T00:06:36.105Z,37.33
2023-05-07T00:11:41.284Z,43.70
2023-05-07T00:16:46.698Z,50.17
2023-05-07T00:21:52.160Z,54.05
2023-05-07T00:26:57.520Z,41.90
2023-05-07T00:32:02.637Z,50.72
2023-05-07T00:42:14.873Z,44.60
2023-05-07T00:52:26.692Z,45.25
2023-05-07T00:57:31.976Z,53.85
2023-05-07T01:02:39.620Z,36.40
2023-05-07T01:07:46.178Z,43.80
2023-05-07T01:12:53.314Z,41.42
2023-05-07T01:17:59.587Z,43.15
2023-05-07T01:23:12.100Z,50.40
2023-05-07T01:28:17.650Z,51.63
2023-05-07T01:33:24.863Z,51.80
2023-05-07T01:38:31.396Z,46.75
2023-05-07T01:43:37.018Z,51.78
2023-05-07T01:48:42.923Z,39.70
2023-05-07T01:53:53.037Z,51.45
2023-05-07T01:58:59.106Z,62.30
2023-05-07T02:09:11.310Z,43.47
2023-05-07T02:14:23.023Z,52.75
2023-05-07T02:19:28.413Z,58.15
2023-05-07T02:24:34.181Z,57.63
2023-05-07T02:29:39.634Z,41.85
2023-05-07T02:34:45.525Z,61.40
2023-05-07T02:39:50.994Z,65.65
2023-05-07T02:44:56.173Z,53.67
2023-05-07T02:55:06.417Z,50.72
2023-05-07T03:05:28.789Z,51.40
2023-05-07T03:15:39.178Z,56.65
2023-05-07T03:20:44.933Z,58.30
2023-05-07T03:25:50.703Z,46.92
2023-05-07T03:30:56.411Z,42.45
2023-05-07T03:36:02.005Z,52.45
2023-05-07T03:41:07.706Z,48.28
2023-05-07T03:46:14.211Z,55.40
2023-05-07T03:51:20.349Z,47.28
2023-05-07T03:56:28.980Z,51.38
2023-05-07T04:01:37.032Z,51.30
2023-05-07T04:06:42.414Z,49.20
2023-05-07T04:11:48.188Z,51.35
2023-05-07T04:16:53.816Z,54.30
2023-05-07T04:21:59.457Z,51.70
2023-05-07T04:27:05.165Z,52.28
2023-05-07T04:32:12.230Z,56.45
2023-05-07T04:37:18.788Z,62.20
2023-05-07T04:42:25.150Z,61.60
2023-05-07T04:47:30.632Z,56.95
2023-05-07T04:52:37.529Z,49.25
2023-05-07T04:57:44.339Z,53.08
2023-05-07T05:02:52.216Z,52.45
2023-05-07T05:08:00.017Z,51.53
2023-05-07T05:13:06.006Z,44.58
2023-05-07T05:18:11.519Z,55.05
2023-05-07T05:23:18.584Z,53.17
2023-05-07T05:28:24.433Z,52.42
2023-05-07T05:33:31.194Z,51.72
2023-05-07T05:38:43.096Z,51.03
2023-05-07T05:43:49.328Z,45.83
2023-05-07T05:48:55.436Z,51.05
2023-05-07T05:54:00.993Z,42.03
2023-05-07T05:59:08.121Z,47.78
2023-05-07T06:04:13.902Z,55.10
2023-05-07T06:09:19.378Z,48.33
2023-05-07T06:14:25.470Z,47.60
2023-05-07T06:19:33.721Z,52.08
2023-05-07T06:24:39.208Z,56.75
2023-05-07T06:29:46.937Z,45.50
2023-05-07T06:34:54.191Z,45.78
2023-05-07T06:40:00.294Z,58.35
2023-05-07T06:45:08.429Z,50.22
2023-05-07T06:50:14.113Z,48.40
2023-05-07T06:55:22.927Z,45.05
2023-05-07T07:00:29.159Z,36.53
2023-05-07T07:05:35.084Z,50.25
2023-05-07T07:10:42.251Z,51.65
2023-05-07T07:15:47.877Z,55.75
2023-05-07T07:20:53.471Z,50.08
2023-05-07T07:25:59.197Z,49.60
2023-05-07T07:31:07.096Z,46.20
2023-05-07T07:36:12.979Z,65.63
2023-05-07T07:41:19.273Z,39.22
2023-05-07T07:46:26.182Z,54.35
2023-05-07T07:51:32.969Z,65.90
2023-05-07T07:56:39.614Z,63.40
2023-05-07T08:01:45.892Z,67.30
2023-05-07T08:06:51.610Z,66.55
2023-05-07T08:11:57.929Z,63.38
2023-05-07T08:17:03.966Z,81.68
2023-05-07T08:22:10.045Z,80.28
2023-05-07T08:27:15.324Z,77.78
2023-05-07T08:32:21.539Z,84.03
2023-05-07T08:37:27.231Z,79.43
2023-05-07T08:42:38.454Z,80.45
2023-05-07T08:47:49.508Z,84.72
2023-05-07T08:52:58.875Z,76.85
2023-05-07T08:58:04.414Z,78.43
2023-05-07T09:03:14.780Z,85.95
2023-05-07T09:08:28.795Z,83.32
2023-05-07T09:13:38.409Z,80.97
2023-05-07T09:18:46.002Z,81.32
2023-05-07T09:23:57.849Z,67.57
2023-05-07T09:29:13.762Z,75.25
2023-05-07T09:34:19.886Z,71.60
2023-05-07T09:39:27.055Z,64.68
2023-05-07T09:44:34.835Z,67.15
2023-05-07T09:49:44.800Z,69.95
2023-05-07T09:54:53.010Z,60.13
2023-05-07T10:00:02.595Z,63.67
2023-05-07T10:05:13.185Z,56.45
2023-05-07T10:10:20.135Z,65.38
2023-05-07T10:15:27.110Z,58.72
2023-05-07T10:20:36.245Z,57.03
2023-05-07T10:25:44.035Z,46.45
2023-05-07T10:31:32.818Z,43.38
2023-05-07T10:36:39.314Z,49.97
2023-05-07T10:41:45.758Z,52.35
2023-05-07T10:47:11.296Z,46.47
2023-05-07T10:52:24.080Z,43.47
2023-05-07T10:57:39.279Z,46.80
2023-05-07T11:03:04.015Z,44.35
2023-05-07T11:08:18.494Z,47.60
2023-05-07T11:13:50.703Z,46.53
2023-05-07T11:19:19.186Z,44.40
2023-05-07T11:24:28.054Z,34.83
2023-05-07T11:29:41.231Z,39.92
2023-05-07T11:34:54.397Z,48.20
2023-05-07T11:40:09.164Z,43.17
2023-05-07T11:45:14.932Z,46.63
2023-05-07T11:50:20.868Z,51.40
2023-05-07T11:55:28.576Z,42.58
2023-05-07T12:00:34.647Z,50.83
2023-05-07T12:05:41.954Z,40.60
2023-05-07T12:10:50.295Z,53.03
2023-05-07T12:15:57.400Z,33.55
2023-05-07T12:21:03.277Z,43.85
2023-05-07T12:26:11.704Z,46.35
2023-05-07T12:31:18.517Z,50.72
2023-05-07T12:36:23.963Z,51.20
2023-05-07T12:46:42.345Z,49.17
2023-05-07T12:51:49.346Z,47.28
2023-05-07T12:57:02.706Z,40.15
2023-05-07T13:02:08.956Z,28.05
2023-05-07T13:07:16.115Z,45.45
2023-05-07T13:12:21.175Z,26.02
2023-05-07T13:17:26.779Z,29.08
2023-05-07T13:22:32.394Z,24.80
2023-05-07T13:27:40.072Z,29.80
2023-05-07T13:32:45.642Z,30.15
2023-05-07T13:37:51.665Z,22.20
2023-05-07T13:43:04.310Z,24.08
2023-05-07T13:48:11.032Z,27.85
2023-05-07T13:53:18.131Z,25.88
2023-05-07T13:58:23.728Z,22.00
2023-05-07T14:03:29.220Z,16.52
2023-05-07T14:08:34.732Z,12.45
2023-05-07T14:18:45.198Z,33.28
2023-05-07T14:23:51.257Z,37.20
2023-05-07T14:28:57.681Z,33.55
2023-05-07T14:34:03.080Z,51.33
2023-05-07T14:39:08.584Z,39.78
2023-05-07T14:44:14.287Z,44.15
2023-05-07T14:49:20.145Z,39.58
2023-05-07T14:54:25.702Z,41.17
2023-05-07T14:59:31.188Z,42.13
2023-05-07T15:04:37.196Z,37.08
2023-05-07T15:09:42.656Z,36.42
2023-05-07T15:14:48.143Z,28.77
2023-05-07T15:19:54.458Z,31.15
2023-05-07T15:25:01.194Z,32.50
2023-05-07T15:30:07.350Z,33.13
2023-05-07T15:35:13.419Z,32.67
2023-05-07T15:40:19.427Z,33.42
2023-05-07T15:45:36.938Z,27.52
2023-05-07T15:50:42.643Z,31.92
2023-05-07T15:55:49.683Z,33.85
2023-05-07T16:00:55.523Z,33.08
2023-05-07T16:06:03.913Z,33.13
2023-05-07T16:11:09.495Z,27.33
2023-05-07T16:16:14.895Z,28.13
2023-05-07T16:21:39.638Z,32.97
2023-05-07T16:27:23.210Z,33.50
2023-05-07T16:32:30.039Z,34.28
2023-05-07T16:37:44.138Z,33.53
2023-05-07T16:42:49.432Z,32.78
2023-05-07T16:47:58.185Z,32.53
2023-05-07T16:53:16.223Z,19.40
2023-05-07T16:58:21.737Z,23.27
2023-05-07T17:03:27.081Z,25.10
2023-05-07T17:13:37.770Z,21.03
2023-05-07T17:23:48.543Z,30.30
2023-05-07T17:28:53.672Z,24.55
2023-05-07T17:34:00.369Z,23.08
2023-05-07T17:39:06.340Z,17.85
2023-05-07T17:44:11.761Z,19.58
2023-05-07T17:54:22.913Z,24.53
2023-05-07T17:59:28.381Z,21.23
2023-05-07T18:09:38.993Z,28.20
2023-05-07T18:14:44.708Z,26.08
2023-05-07T18:19:52.291Z,25.85
2023-05-07T18:24:59.061Z,24.63
2023-05-07T18:30:04.764Z,25.33
2023-05-07T18:35:10.192Z,24.40
2023-05-07T18:40:15.893Z,25.02
2023-05-07T18:45:21.977Z,26.33
2023-05-07T18:50:27.036Z,26.40
2023-05-07T18:55:32.936Z,26.23
2023-05-07T19:00:38.306Z,25.63
2023-05-07T19:05:45.183Z,26.00
2023-05-07T19:10:50.293Z,29.95
2023-05-07T19:15:56.206Z,25.75
2023-05-07T19:21:01.356Z,24.90
2023-05-07T19:26:06.763Z,26.25
2023-05-07T19:36:18.662Z,29.10
2023-05-07T19:41:24.634Z,28.02
2023-05-07T19:46:41.628Z,31.42
2023-05-07T19:51:47.115Z,30.30
2023-05-07T19:56:52.542Z,27.05
2023-05-07T20:01:58.004Z,16.92
2023-05-07T20:07:03.380Z,22.83
2023-05-07T20:17:13.796Z,11.80
2023-05-07T20:27:26.222Z,16.83
2023-05-07T20:32:31.598Z,17.88
2023-05-07T20:37:37.421Z,15.38
2023-05-07T20:42:44.041Z,13.02
2023-05-07T20:47:49.509Z,10.70
2023-05-07T20:57:59.452Z,11.27
2023-05-07T21:03:04.937Z,14.48
2023-05-07T21:13:14.794Z,14.52
2023-05-07T21:18:20.713Z,12.48
2023-05-07T21:23:25.717Z,9.57
2023-05-07T21:28:31.042Z,13.65
2023-05-07T21:38:41.776Z,14.77
2023-05-07T21:43:46.667Z,14.73
2023-05-07T21:48:51.943Z,17.60
2023-05-07T21:53:57.295Z,13.88
2023-05-07T21:59:02.636Z,15.20
2023-05-07T22:04:07.938Z,14.05
2023-05-07T22:14:19.047Z,15.48
2023-05-07T22:19:25.404Z,16.85
2023-05-07T22:24:32.332Z,19.25
2023-05-07T22:29:37.706Z,17.13
2023-05-07T22:34:43.348Z,27.33
2023-05-07T22:39:48.957Z,27.92
2023-05-07T22:44:59.867Z,20.02
2023-05-07T22:50:06.622Z,21.00
2023-05-07T22:55:12.028Z,29.77
2023-05-07T23:00:17.628Z,30.42
2023-05-07T23:10:27.205Z,25.58
2023-05-07T23:20:42.503Z,20.08
2023-05-07T23:25:48.392Z,26.65
2023-05-07T23:36:04.526Z,21.77
2023-05-07T23:41:09.845Z,26.88
2023-05-07T23:51:20.470Z,19.95
2023-05-07T23:56:26.033Z,22.08
